Terminal Aerodrome Forecast
Issued by NWS Fort Wayne, IN

Home | Current Version | Previous Version | Graphics & Text | Print | Product List | Glossary Off
Versions: 1 2 3 4 5 6 7 8 9 10 11 12 13 14

000
FTUS43 KIWX 260500
TAFFWA
TAF
KFWA 260535Z 2606/2706 02007KT P6SM SCT100
     FM261600 02012G17KT P6SM BKN040
     FM270000 31006KT P6SM BKN050=

USA.gov is the U.S. government's official web portal to all federal, state and local government web resources and services.